createdAt,value
2019-03-25T00:01:52.287Z,41.80
2019-03-25T00:06:23.482Z,43.73
2019-03-25T00:10:58.252Z,42.13
2019-03-25T00:15:33.374Z,41.20
2019-03-25T00:20:05.117Z,42.40
2019-03-25T00:24:39.254Z,44.50
2019-03-25T00:29:13.261Z,42.83
2019-03-25T00:33:45.731Z,40.90
2019-03-25T00:38:20.387Z,43.43
2019-03-25T00:42:53.539Z,43.73
2019-03-25T00:47:25.125Z,44.60
2019-03-25T00:52:01.676Z,44.90
2019-03-25T00:56:35.914Z,46.73
2019-03-25T01:01:10.103Z,46.03
2019-03-25T01:05:42.987Z,45.37
2019-03-25T01:10:36.918Z,46.07
2019-03-25T01:15:10.321Z,46.07
2019-03-25T01:19:44.840Z,46.80
2019-03-25T01:24:19.544Z,47.70
2019-03-25T01:28:51.383Z,49.23
2019-03-25T01:33:25.621Z,44.80
2019-03-25T01:38:00.930Z,42.87
2019-03-25T01:42:38.025Z,39.37
2019-03-25T01:47:10.263Z,41.00
2019-03-25T01:51:45.851Z,39.97
2019-03-25T01:56:19.178Z,39.77
2019-03-25T02:01:10.802Z,39.90
2019-03-25T02:05:44.952Z,39.87
2019-03-25T02:10:22.922Z,37.63
2019-03-25T02:15:13.361Z,40.33
2019-03-25T02:19:48.075Z,39.57
2019-03-25T02:24:24.176Z,38.80
2019-03-25T02:28:56.582Z,38.60
2019-03-25T02:33:34.361Z,35.60
2019-03-25T02:38:08.203Z,36.97
2019-03-25T02:47:14.308Z,34.43
2019-03-25T02:51:51.383Z,33.77
2019-03-25T02:56:24.700Z,33.80
2019-03-25T03:00:56.331Z,34.00
2019-03-25T03:05:30.252Z,33.17
2019-03-25T03:14:39.377Z,32.57
2019-03-25T03:19:15.729Z,31.33
2019-03-25T03:23:48.167Z,31.23
2019-03-25T03:28:21.511Z,31.73
2019-03-25T03:32:56.122Z,30.53
2019-03-25T03:37:28.817Z,31.27
2019-03-25T03:42:00.393Z,32.57
2019-03-25T03:46:35.781Z,31.67
2019-03-25T03:51:11.025Z,27.47
2019-03-25T04:00:19.096Z,24.97
2019-03-25T04:04:53.549Z,24.27
2019-03-25T04:13:58.855Z,18.60
2019-03-25T04:18:31.098Z,17.53
2019-03-25T04:23:08.881Z,16.97
2019-03-25T04:28:01.947Z,17.20
2019-03-25T04:32:35.714Z,16.63
2019-03-25T04:37:09.330Z,16.50
2019-03-25T04:41:41.932Z,19.27
2019-03-25T04:46:18.603Z,18.53
2019-03-25T04:50:51.316Z,18.07
2019-03-25T04:55:25.249Z,17.77
2019-03-25T04:59:55.947Z,17.13
2019-03-25T05:04:28.559Z,17.90
2019-03-25T05:09:03.872Z,17.60
2019-03-25T05:13:37.449Z,17.60
2019-03-25T05:18:11.177Z,15.50
2019-03-25T05:22:44.422Z,16.23
2019-03-25T05:27:15.432Z,15.80
2019-03-25T05:31:50.982Z,14.53
2019-03-25T05:36:27.253Z,15.60
2019-03-25T05:46:16.936Z,13.67
2019-03-25T05:50:52.699Z,11.93
2019-03-25T05:55:25.925Z,12.20
2019-03-25T06:00:00.373Z,11.13
2019-03-25T06:04:35.445Z,12.20
2019-03-25T06:09:15.292Z,11.57
2019-03-25T06:13:50.592Z,11.77
2019-03-25T06:18:23.817Z,11.80
2019-03-25T06:22:55.151Z,11.87
2019-03-25T06:32:15.699Z,11.70
2019-03-25T06:41:35.447Z,12.73
2019-03-25T06:46:12.115Z,12.37
2019-03-25T06:50:47.085Z,13.13
2019-03-25T06:55:25.448Z,11.07
2019-03-25T07:00:35.145Z,11.40
2019-03-25T07:05:18.059Z,10.30
2019-03-25T07:09:46.049Z,9.67
2019-03-25T07:14:20.779Z,8.80
2019-03-25T07:18:54.223Z,7.47
2019-03-25T07:23:31.000Z,7.43
2019-03-25T07:28:04.155Z,8.80
2019-03-25T07:32:36.261Z,7.50
2019-03-25T07:37:11.575Z,8.40
2019-03-25T07:41:45.042Z,7.17
2019-03-25T07:46:22.439Z,7.77
2019-03-25T07:50:53.427Z,7.10
2019-03-25T07:55:45.580Z,5.43
2019-03-25T08:00:15.713Z,5.73
2019-03-25T08:04:52.202Z,5.17
2019-03-25T08:09:28.031Z,5.97
2019-03-25T08:18:33.452Z,5.93
2019-03-25T08:23:26.097Z,5.63
2019-03-25T08:28:03.192Z,5.73
2019-03-25T08:32:35.946Z,5.37
2019-03-25T08:37:12.479Z,4.57
2019-03-25T08:41:45.084Z,4.80
2019-03-25T08:46:15.660Z,4.43
2019-03-25T08:50:52.372Z,4.60
2019-03-25T08:55:33.299Z,3.20
2019-03-25T09:00:07.071Z,4.57
2019-03-25T09:04:45.501Z,3.57
2019-03-25T09:09:20.844Z,3.43
2019-03-25T09:13:53.481Z,3.50
2019-03-25T09:18:46.356Z,4.03
2019-03-25T09:23:20.782Z,4.83
2019-03-25T09:27:53.917Z,4.53
2019-03-25T09:32:28.011Z,3.97
2019-03-25T09:37:04.198Z,3.80
2019-03-25T09:41:36.274Z,3.13
2019-03-25T09:46:10.961Z,3.30
2019-03-25T09:50:43.801Z,3.00
2019-03-25T09:55:17.496Z,3.30
2019-03-25T09:59:50.923Z,3.73
2019-03-25T10:04:24.440Z,3.50
2019-03-25T10:08:55.467Z,3.13
2019-03-25T10:13:35.684Z,3.27
2019-03-25T10:18:10.813Z,2.90
2019-03-25T10:22:44.179Z,3.20
2019-03-25T10:27:15.518Z,3.20
2019-03-25T10:31:51.399Z,3.30
2019-03-25T10:36:24.021Z,3.20
2019-03-25T10:40:56.624Z,3.43
2019-03-25T10:45:31.277Z,2.37
2019-03-25T10:50:06.381Z,2.80
2019-03-25T10:54:40.129Z,3.53
2019-03-25T10:59:13.978Z,3.80
2019-03-25T11:03:45.832Z,3.73
2019-03-25T11:08:22.865Z,3.73
2019-03-25T11:12:53.017Z,3.57
2019-03-25T11:17:25.643Z,3.20
2019-03-25T11:22:00.549Z,3.70
2019-03-25T11:26:34.544Z,3.83
2019-03-25T11:31:13.811Z,4.43
2019-03-25T11:35:48.577Z,4.43
2019-03-25T11:40:23.789Z,4.70
2019-03-25T11:44:56.608Z,3.90
2019-03-25T11:49:32.184Z,5.03
2019-03-25T11:54:24.853Z,5.17
2019-03-25T11:58:56.011Z,5.40
2019-03-25T12:08:07.994Z,5.47
2019-03-25T12:12:40.931Z,5.87
2019-03-25T12:17:15.428Z,5.80
2019-03-25T12:21:57.479Z,4.70
2019-03-25T12:26:31.386Z,6.87
2019-03-25T12:31:04.837Z,5.90
2019-03-25T12:35:35.562Z,6.43
2019-03-25T12:40:11.558Z,5.33
2019-03-25T12:44:47.257Z,4.60
2019-03-25T12:49:23.784Z,7.23
2019-03-25T12:53:56.632Z,6.10
2019-03-25T12:58:29.611Z,5.73
2019-03-25T13:03:01.915Z,4.93
2019-03-25T13:07:38.690Z,5.17
2019-03-25T13:12:14.327Z,5.43
2019-03-25T13:16:47.705Z,6.03
2019-03-25T13:21:20.597Z,5.83
2019-03-25T13:25:55.622Z,5.70
2019-03-25T13:30:29.179Z,5.40
2019-03-25T13:35:00.854Z,5.13
2019-03-25T13:39:31.656Z,5.13
2019-03-25T13:44:03.821Z,5.57
2019-03-25T13:48:39.085Z,6.07
2019-03-25T13:53:10.652Z,6.30
2019-03-25T13:57:46.554Z,6.17
2019-03-25T14:02:19.157Z,5.57
2019-03-25T14:07:10.748Z,6.83
2019-03-25T14:12:04.154Z,6.60
2019-03-25T14:16:38.318Z,6.93
2019-03-25T14:21:11.957Z,7.00
2019-03-25T14:25:45.851Z,5.97
2019-03-25T14:30:21.268Z,7.10
2019-03-25T14:34:57.989Z,7.07
2019-03-25T14:39:29.095Z,8.13
2019-03-25T14:44:02.933Z,6.53
2019-03-25T14:48:37.924Z,8.00
2019-03-25T14:53:10.524Z,8.83
2019-03-25T14:57:43.709Z,8.73
2019-03-25T15:02:19.817Z,7.80
2019-03-25T15:06:59.618Z,12.33
2019-03-25T15:11:31.572Z,14.60
2019-03-25T15:16:08.360Z,10.93
2019-03-25T15:21:03.194Z,13.30
2019-03-25T15:25:35.499Z,12.73
2019-03-25T15:30:10.767Z,10.20
2019-03-25T15:34:43.772Z,10.43
2019-03-25T15:39:19.222Z,11.97
2019-03-25T15:44:23.104Z,13.53
2019-03-25T15:48:55.829Z,11.63
2019-03-25T16:02:56.434Z,13.20
2019-03-25T16:07:34.558Z,12.77
2019-03-25T16:12:06.771Z,11.77
2019-03-25T16:16:39.834Z,12.20
2019-03-25T16:21:12.206Z,11.20
2019-03-25T16:25:46.803Z,10.50
2019-03-25T16:34:55.102Z,11.47
2019-03-25T16:39:30.909Z,9.83
2019-03-25T16:44:04.330Z,10.87
2019-03-25T16:48:36.903Z,11.43
2019-03-25T16:53:13.901Z,9.30
2019-03-25T16:57:46.703Z,8.93
2019-03-25T17:02:31.250Z,9.77
2019-03-25T17:07:08.152Z,10.27
2019-03-25T17:12:02.079Z,11.00
2019-03-25T17:16:35.871Z,11.00
2019-03-25T17:21:09.293Z,10.37
2019-03-25T17:26:04.494Z,11.63
2019-03-25T17:30:38.925Z,11.30
2019-03-25T17:35:13.423Z,11.20
2019-03-25T17:39:46.769Z,15.27
2019-03-25T17:44:19.588Z,13.50
2019-03-25T17:48:52.518Z,15.73
2019-03-25T17:53:28.119Z,16.53
2019-03-25T17:58:02.235Z,14.87
2019-03-25T18:02:36.281Z,15.37
2019-03-25T18:07:10.279Z,12.93
2019-03-25T18:11:47.944Z,6.37
2019-03-25T18:16:22.623Z,5.13
2019-03-25T18:25:30.356Z,5.57
2019-03-25T18:30:07.267Z,6.80
2019-03-25T18:34:41.704Z,5.57
2019-03-25T18:39:20.071Z,6.47
2019-03-25T18:43:51.749Z,6.13
2019-03-25T18:48:27.209Z,6.73
2019-03-25T18:53:02.252Z,8.37
2019-03-25T18:57:36.411Z,9.83
2019-03-25T19:02:09.324Z,11.23
2019-03-25T19:06:58.982Z,11.93
2019-03-25T19:11:31.666Z,15.43
2019-03-25T19:16:09.097Z,16.30
2019-03-25T19:21:04.464Z,16.73
2019-03-25T19:25:36.484Z,15.03
2019-03-25T19:30:10.357Z,16.83
2019-03-25T19:34:44.566Z,16.47
2019-03-25T19:39:18.781Z,18.17
2019-03-25T19:43:53.327Z,16.50
2019-03-25T19:48:29.503Z,17.30
2019-03-25T19:57:31.335Z,19.63
2019-03-25T20:02:18.148Z,20.70
2019-03-25T20:06:40.144Z,21.80
2019-03-25T20:11:11.862Z,18.23
2019-03-25T20:15:48.323Z,20.53
2019-03-25T20:20:20.998Z,19.67
2019-03-25T20:34:11.343Z,22.70
2019-03-25T20:38:41.353Z,20.40
2019-03-25T20:43:14.897Z,22.57
2019-03-25T20:47:46.648Z,23.30
2019-03-25T20:52:20.696Z,22.63
2019-03-25T20:56:54.692Z,20.67
2019-03-25T21:01:34.190Z,23.50
2019-03-25T21:06:10.500Z,21.17
2019-03-25T21:10:47.152Z,20.70
2019-03-25T21:15:24.416Z,22.17
2019-03-25T21:20:00.364Z,23.47
2019-03-25T21:24:31.739Z,24.07
2019-03-25T21:29:09.112Z,21.97
2019-03-25T21:38:13.621Z,23.97
2019-03-25T21:42:47.003Z,23.13
2019-03-25T21:47:23.270Z,25.10
2019-03-25T21:56:29.048Z,25.57
2019-03-25T22:11:14.289Z,27.63
2019-03-25T22:15:49.374Z,26.77
2019-03-25T22:20:27.248Z,25.57
2019-03-25T22:25:02.099Z,24.60
2019-03-25T22:29:35.944Z,23.30
2019-03-25T22:34:06.999Z,22.53
2019-03-25T22:38:45.045Z,22.17
2019-03-25T22:43:17.200Z,26.27
2019-03-25T22:47:49.726Z,29.73
2019-03-25T22:52:23.464Z,25.93
2019-03-25T22:56:56.992Z,26.03
2019-03-25T23:01:31.243Z,25.03
2019-03-25T23:06:04.246Z,25.07
2019-03-25T23:10:56.564Z,26.77
2019-03-25T23:15:27.890Z,24.93
2019-03-25T23:20:02.279Z,28.07
2019-03-25T23:24:37.580Z,26.80
2019-03-25T23:29:11.280Z,26.40
2019-03-25T23:33:52.184Z,23.53
2019-03-25T23:38:21.684Z,22.87
2019-03-25T23:42:55.442Z,23.27
2019-03-25T23:47:27.132Z,21.60
2019-03-25T23:56:27.327Z,22.37
